sensor_id;sensor_type;location;lat;lon;timestamp;P1;durP1;ratioP1;P2;durP2;ratioP2
8048;SDS011;20935;42.660;23.342;2022-10-16T00:02:16;18.70;;;14.40;;
8048;SDS011;20935;42.660;23.342;2022-10-16T00:04:41;15.87;;;14.17;;
8048;SDS011;20935;42.660;23.342;2022-10-16T00:07:06;21.53;;;15.10;;
8048;SDS011;20935;42.660;23.342;2022-10-16T00:09:32;18.43;;;14.50;;
8048;SDS011;20935;42.660;23.342;2022-10-16T00:11:57;19.13;;;14.90;;
8048;SDS011;20935;42.660;23.342;2022-10-16T00:14:22;16.93;;;13.27;;
8048;SDS011;20935;42.660;23.342;2022-10-16T00:16:47;15.67;;;13.73;;
8048;SDS011;20935;42.660;23.342;2022-10-16T00:19:13;17.77;;;13.87;;
8048;SDS011;20935;42.660;23.342;2022-10-16T00:21:38;17.77;;;14.03;;
8048;SDS011;20935;42.660;23.342;2022-10-16T00:24:05;15.70;;;14.00;;
8048;SDS011;20935;42.660;23.342;2022-10-16T00:26:31;17.77;;;13.37;;
8048;SDS011;20935;42.660;23.342;2022-10-16T00:28:57;18.30;;;14.23;;
8048;SDS011;20935;42.660;23.342;2022-10-16T00:31:22;17.20;;;13.70;;
8048;SDS011;20935;42.660;23.342;2022-10-16T00:33:47;15.87;;;13.50;;
8048;SDS011;20935;42.660;23.342;2022-10-16T00:36:15;17.30;;;14.07;;
8048;SDS011;20935;42.660;23.342;2022-10-16T00:38:40;15.77;;;13.87;;
8048;SDS011;20935;42.660;23.342;2022-10-16T00:41:06;16.10;;;13.40;;
8048;SDS011;20935;42.660;23.342;2022-10-16T00:46:02;15.63;;;13.57;;
8048;SDS011;20935;42.660;23.342;2022-10-16T00:48:27;17.10;;;13.43;;
8048;SDS011;20935;42.660;23.342;2022-10-16T00:50:53;16.83;;;13.90;;
8048;SDS011;20935;42.660;23.342;2022-10-16T00:53:18;16.97;;;13.27;;
8048;SDS011;20935;42.660;23.342;2022-10-16T00:55:44;15.80;;;14.10;;
8048;SDS011;20935;42.660;23.342;2022-10-16T00:58:10;15.20;;;12.97;;
8048;SDS011;20935;42.660;23.342;2022-10-16T01:00:36;14.80;;;12.17;;
8048;SDS011;20935;42.660;23.342;2022-10-16T01:03:02;17.13;;;13.57;;
8048;SDS011;20935;42.660;23.342;2022-10-16T01:05:30;15.77;;;12.80;;
8048;SDS011;20935;42.660;23.342;2022-10-16T01:10:38;16.13;;;13.30;;
8048;SDS011;20935;42.660;23.342;2022-10-16T01:13:05;17.13;;;13.20;;
8048;SDS011;20935;42.660;23.342;2022-10-16T01:18:08;15.40;;;12.73;;
8048;SDS011;20935;42.660;23.342;2022-10-16T01:20:35;15.13;;;12.93;;
8048;SDS011;20935;42.660;23.342;2022-10-16T01:28:13;16.43;;;13.50;;
8048;SDS011;20935;42.660;23.342;2022-10-16T01:30:40;14.70;;;12.50;;
8048;SDS011;20935;42.660;23.342;2022-10-16T01:33:12;14.60;;;12.27;;
8048;SDS011;20935;42.660;23.342;2022-10-16T01:35:39;17.27;;;12.97;;
8048;SDS011;20935;42.660;23.342;2022-10-16T01:38:08;14.73;;;12.20;;
8048;SDS011;20935;42.660;23.342;2022-10-16T01:40:36;14.83;;;12.10;;
8048;SDS011;20935;42.660;23.342;2022-10-16T01:43:04;17.10;;;12.17;;
8048;SDS011;20935;42.660;23.342;2022-10-16T01:45:31;14.53;;;13.07;;
8048;SDS011;20935;42.660;23.342;2022-10-16T01:47:56;18.00;;;13.43;;
8048;SDS011;20935;42.660;23.342;2022-10-16T01:50:23;15.60;;;12.27;;
8048;SDS011;20935;42.660;23.342;2022-10-16T01:52:49;17.00;;;12.73;;
8048;SDS011;20935;42.660;23.342;2022-10-16T01:55:18;14.37;;;12.50;;
8048;SDS011;20935;42.660;23.342;2022-10-16T01:57:45;15.43;;;13.30;;
8048;SDS011;20935;42.660;23.342;2022-10-16T02:00:12;15.23;;;12.83;;
8048;SDS011;20935;42.660;23.342;2022-10-16T02:02:39;18.90;;;13.40;;
8048;SDS011;20935;42.660;23.342;2022-10-16T02:05:08;14.90;;;11.73;;
8048;SDS011;20935;42.660;23.342;2022-10-16T02:07:35;15.63;;;13.27;;
8048;SDS011;20935;42.660;23.342;2022-10-16T02:10:00;17.80;;;12.97;;
8048;SDS011;20935;42.660;23.342;2022-10-16T02:12:27;14.40;;;12.00;;
8048;SDS011;20935;42.660;23.342;2022-10-16T02:14:53;14.77;;;13.10;;
8048;SDS011;20935;42.660;23.342;2022-10-16T02:17:18;18.33;;;13.03;;
8048;SDS011;20935;42.660;23.342;2022-10-16T02:19:44;14.20;;;12.27;;
8048;SDS011;20935;42.660;23.342;2022-10-16T02:22:14;16.07;;;12.70;;
8048;SDS011;20935;42.660;23.342;2022-10-16T02:28:08;15.37;;;13.47;;
8048;SDS011;20935;42.660;23.342;2022-10-16T02:30:18;17.60;;;12.30;;
8048;SDS011;20935;42.660;23.342;2022-10-16T02:32:44;17.27;;;12.77;;
8048;SDS011;20935;42.660;23.342;2022-10-16T02:35:10;16.87;;;13.87;;
8048;SDS011;20935;42.660;23.342;2022-10-16T02:37:36;16.47;;;12.83;;
8048;SDS011;20935;42.660;23.342;2022-10-16T02:40:02;16.83;;;13.77;;
8048;SDS011;20935;42.660;23.342;2022-10-16T02:42:33;22.17;;;15.10;;
8048;SDS011;20935;42.660;23.342;2022-10-16T02:44:59;15.73;;;13.07;;
8048;SDS011;20935;42.660;23.342;2022-10-16T02:47:24;18.57;;;14.23;;
8048;SDS011;20935;42.660;23.342;2022-10-16T02:49:50;22.23;;;14.87;;
8048;SDS011;20935;42.660;23.342;2022-10-16T02:52:15;20.23;;;14.80;;
8048;SDS011;20935;42.660;23.342;2022-10-16T02:54:40;18.80;;;14.00;;
8048;SDS011;20935;42.660;23.342;2022-10-16T02:57:05;19.37;;;14.43;;
8048;SDS011;20935;42.660;23.342;2022-10-16T02:59:31;16.00;;;13.47;;
8048;SDS011;20935;42.660;23.342;2022-10-16T03:01:56;16.43;;;13.43;;
8048;SDS011;20935;42.660;23.342;2022-10-16T03:04:21;16.27;;;13.40;;
8048;SDS011;20935;42.660;23.342;2022-10-16T03:06:46;17.50;;;14.37;;
8048;SDS011;20935;42.660;23.342;2022-10-16T03:09:12;19.33;;;13.70;;
8048;SDS011;20935;42.660;23.342;2022-10-16T03:11:37;20.87;;;13.60;;
8048;SDS011;20935;42.660;23.342;2022-10-16T03:14:02;16.53;;;13.73;;
8048;SDS011;20935;42.660;23.342;2022-10-16T03:16:27;17.23;;;13.60;;
8048;SDS011;20935;42.660;23.342;2022-10-16T03:18:53;16.90;;;13.43;;
8048;SDS011;20935;42.660;23.342;2022-10-16T03:21:18;15.60;;;12.57;;
8048;SDS011;20935;42.660;23.342;2022-10-16T03:23:43;17.27;;;13.17;;
8048;SDS011;20935;42.660;23.342;2022-10-16T03:26:08;15.77;;;12.73;;
8048;SDS011;20935;42.660;23.342;2022-10-16T03:28:34;16.63;;;13.47;;
8048;SDS011;20935;42.660;23.342;2022-10-16T03:30:59;17.20;;;12.87;;
8048;SDS011;20935;42.660;23.342;2022-10-16T03:33:24;15.53;;;13.40;;
8048;SDS011;20935;42.660;23.342;2022-10-16T03:35:53;15.70;;;13.40;;
8048;SDS011;20935;42.660;23.342;2022-10-16T03:38:18;18.67;;;13.17;;
8048;SDS011;20935;42.660;23.342;2022-10-16T03:40:44;18.00;;;12.67;;
8048;SDS011;20935;42.660;23.342;2022-10-16T03:43:09;13.60;;;11.73;;
8048;SDS011;20935;42.660;23.342;2022-10-16T03:45:34;16.47;;;12.07;;
8048;SDS011;20935;42.660;23.342;2022-10-16T03:47:59;16.23;;;12.20;;
8048;SDS011;20935;42.660;23.342;2022-10-16T03:50:25;14.63;;;12.23;;
8048;SDS011;20935;42.660;23.342;2022-10-16T03:52:50;13.53;;;11.20;;
8048;SDS011;20935;42.660;23.342;2022-10-16T03:55:15;15.53;;;12.17;;
8048;SDS011;20935;42.660;23.342;2022-10-16T03:57:41;15.43;;;12.27;;
8048;SDS011;20935;42.660;23.342;2022-10-16T04:00:06;14.90;;;12.37;;
8048;SDS011;20935;42.660;23.342;2022-10-16T04:02:31;16.30;;;13.03;;
8048;SDS011;20935;42.660;23.342;2022-10-16T04:04:57;14.87;;;11.77;;
8048;SDS011;20935;42.660;23.342;2022-10-16T04:07:22;15.47;;;11.73;;
8048;SDS011;20935;42.660;23.342;2022-10-16T04:09:47;13.87;;;11.93;;
8048;SDS011;20935;42.660;23.342;2022-10-16T04:12:12;16.93;;;12.30;;
8048;SDS011;20935;42.660;23.342;2022-10-16T04:14:38;17.07;;;12.37;;
8048;SDS011;20935;42.660;23.342;2022-10-16T04:17:03;13.83;;;11.07;;
8048;SDS011;20935;42.660;23.342;2022-10-16T04:19:28;16.20;;;12.50;;
8048;SDS011;20935;42.660;23.342;2022-10-16T04:21:53;15.50;;;11.50;;
8048;SDS011;20935;42.660;23.342;2022-10-16T04:24:19;16.70;;;13.07;;
8048;SDS011;20935;42.660;23.342;2022-10-16T04:26:44;14.07;;;12.23;;
8048;SDS011;20935;42.660;23.342;2022-10-16T04:29:09;13.77;;;11.43;;
8048;SDS011;20935;42.660;23.342;2022-10-16T04:31:34;20.13;;;13.00;;
8048;SDS011;20935;42.660;23.342;2022-10-16T04:34:00;15.67;;;11.67;;
8048;SDS011;20935;42.660;23.342;2022-10-16T04:36:25;14.53;;;12.23;;
8048;SDS011;20935;42.660;23.342;2022-10-16T04:38:50;13.90;;;11.40;;
8048;SDS011;20935;42.660;23.342;2022-10-16T04:41:16;16.53;;;13.03;;
8048;SDS011;20935;42.660;23.342;2022-10-16T04:43:41;13.50;;;10.90;;
8048;SDS011;20935;42.660;23.342;2022-10-16T04:46:06;16.70;;;12.53;;
8048;SDS011;20935;42.660;23.342;2022-10-16T04:48:31;16.57;;;12.77;;
8048;SDS011;20935;42.660;23.342;2022-10-16T04:50:57;14.20;;;11.23;;
8048;SDS011;20935;42.660;23.342;2022-10-16T04:53:22;12.87;;;11.13;;
8048;SDS011;20935;42.660;23.342;2022-10-16T04:55:48;14.47;;;11.30;;
8048;SDS011;20935;42.660;23.342;2022-10-16T04:58:13;13.13;;;11.27;;
8048;SDS011;20935;42.660;23.342;2022-10-16T05:00:38;15.70;;;11.97;;
8048;SDS011;20935;42.660;23.342;2022-10-16T05:03:04;18.03;;;12.20;;
8048;SDS011;20935;42.660;23.342;2022-10-16T05:05:32;15.87;;;12.43;;
8048;SDS011;20935;42.660;23.342;2022-10-16T05:07:58;15.50;;;12.47;;
8048;SDS011;20935;42.660;23.342;2022-10-16T05:10:23;15.40;;;11.43;;
8048;SDS011;20935;42.660;23.342;2022-10-16T05:12:48;14.53;;;12.47;;
8048;SDS011;20935;42.660;23.342;2022-10-16T05:15:13;16.27;;;12.67;;
8048;SDS011;20935;42.660;23.342;2022-10-16T05:17:39;15.50;;;13.23;;
8048;SDS011;20935;42.660;23.342;2022-10-16T05:20:04;13.30;;;10.80;;
8048;SDS011;20935;42.660;23.342;2022-10-16T05:22:30;14.87;;;10.87;;
8048;SDS011;20935;42.660;23.342;2022-10-16T05:24:55;17.83;;;12.20;;
8048;SDS011;20935;42.660;23.342;2022-10-16T05:27:20;12.77;;;11.47;;
8048;SDS011;20935;42.660;23.342;2022-10-16T05:29:46;14.70;;;11.80;;
8048;SDS011;20935;42.660;23.342;2022-10-16T05:32:12;14.07;;;11.23;;
8048;SDS011;20935;42.660;23.342;2022-10-16T05:34:37;13.30;;;11.13;;
8048;SDS011;20935;42.660;23.342;2022-10-16T05:37:02;14.03;;;11.93;;
8048;SDS011;20935;42.660;23.342;2022-10-16T05:39:28;16.00;;;12.17;;
8048;SDS011;20935;42.660;23.342;2022-10-16T05:41:53;15.67;;;11.93;;
8048;SDS011;20935;42.660;23.342;2022-10-16T05:44:18;17.30;;;12.57;;
8048;SDS011;20935;42.660;23.342;2022-10-16T05:46:43;16.57;;;13.27;;
8048;SDS011;20935;42.660;23.342;2022-10-16T05:49:10;15.70;;;12.20;;
8048;SDS011;20935;42.660;23.342;2022-10-16T05:51:36;15.30;;;12.13;;
8048;SDS011;20935;42.660;23.342;2022-10-16T05:54:01;15.77;;;12.63;;
8048;SDS011;20935;42.660;23.342;2022-10-16T05:56:26;18.17;;;14.13;;
8048;SDS011;20935;42.660;23.342;2022-10-16T05:58:51;17.60;;;14.00;;
8048;SDS011;20935;42.660;23.342;2022-10-16T06:01:17;20.37;;;14.47;;
8048;SDS011;20935;42.660;23.342;2022-10-16T06:03:43;17.57;;;14.10;;
8048;SDS011;20935;42.660;23.342;2022-10-16T06:06:12;16.53;;;13.20;;
8048;SDS011;20935;42.660;23.342;2022-10-16T06:08:38;13.43;;;11.97;;
8048;SDS011;20935;42.660;23.342;2022-10-16T06:11:07;16.63;;;12.57;;
8048;SDS011;20935;42.660;23.342;2022-10-16T06:13:32;16.40;;;11.63;;
8048;SDS011;20935;42.660;23.342;2022-10-16T06:15:58;13.43;;;12.07;;
8048;SDS011;20935;42.660;23.342;2022-10-16T06:18:24;15.60;;;11.53;;
8048;SDS011;20935;42.660;23.342;2022-10-16T06:20:49;12.47;;;11.17;;
8048;SDS011;20935;42.660;23.342;2022-10-16T06:23:14;13.30;;;11.20;;
8048;SDS011;20935;42.660;23.342;2022-10-16T06:25:40;13.87;;;11.00;;
8048;SDS011;20935;42.660;23.342;2022-10-16T06:28:05;13.10;;;11.53;;
8048;SDS011;20935;42.660;23.342;2022-10-16T06:30:30;16.33;;;11.87;;
8048;SDS011;20935;42.660;23.342;2022-10-16T06:32:55;17.33;;;12.00;;
8048;SDS011;20935;42.660;23.342;2022-10-16T06:35:21;12.93;;;11.53;;
8048;SDS011;20935;42.660;23.342;2022-10-16T06:37:46;13.30;;;11.47;;
8048;SDS011;20935;42.660;23.342;2022-10-16T06:40:12;11.37;;;9.40;;
8048;SDS011;20935;42.660;23.342;2022-10-16T06:42:39;12.70;;;8.90;;
8048;SDS011;20935;42.660;23.342;2022-10-16T06:45:04;10.17;;;8.87;;
8048;SDS011;20935;42.660;23.342;2022-10-16T06:47:30;9.73;;;8.73;;
8048;SDS011;20935;42.660;23.342;2022-10-16T06:49:55;10.23;;;8.73;;
8048;SDS011;20935;42.660;23.342;2022-10-16T06:52:20;11.27;;;8.47;;
8048;SDS011;20935;42.660;23.342;2022-10-16T06:54:46;9.50;;;8.63;;
8048;SDS011;20935;42.660;23.342;2022-10-16T06:57:11;13.70;;;8.33;;
8048;SDS011;20935;42.660;23.342;2022-10-16T06:59:36;8.90;;;8.10;;
8048;SDS011;20935;42.660;23.342;2022-10-16T07:02:02;10.90;;;8.43;;
8048;SDS011;20935;42.660;23.342;2022-10-16T07:04:27;9.03;;;8.13;;
8048;SDS011;20935;42.660;23.342;2022-10-16T07:06:52;11.30;;;8.73;;
8048;SDS011;20935;42.660;23.342;2022-10-16T07:09:17;12.63;;;9.07;;
8048;SDS011;20935;42.660;23.342;2022-10-16T07:11:43;10.57;;;8.50;;
8048;SDS011;20935;42.660;23.342;2022-10-16T07:14:16;10.20;;;9.20;;
8048;SDS011;20935;42.660;23.342;2022-10-16T07:16:41;12.03;;;10.53;;
8048;SDS011;20935;42.660;23.342;2022-10-16T07:19:07;11.97;;;10.70;;
8048;SDS011;20935;42.660;23.342;2022-10-16T07:21:33;12.70;;;10.83;;
8048;SDS011;20935;42.660;23.342;2022-10-16T07:24:02;15.03;;;11.73;;
8048;SDS011;20935;42.660;23.342;2022-10-16T07:26:28;15.07;;;11.00;;
8048;SDS011;20935;42.660;23.342;2022-10-16T07:28:53;14.23;;;11.53;;
8048;SDS011;20935;42.660;23.342;2022-10-16T07:31:20;15.53;;;11.20;;
8048;SDS011;20935;42.660;23.342;2022-10-16T07:33:46;17.37;;;11.77;;
8048;SDS011;20935;42.660;23.342;2022-10-16T07:36:13;15.43;;;12.00;;
8048;SDS011;20935;42.660;23.342;2022-10-16T07:38:38;13.60;;;10.77;;
8048;SDS011;20935;42.660;23.342;2022-10-16T07:41:07;13.97;;;10.80;;
8048;SDS011;20935;42.660;23.342;2022-10-16T07:43:32;14.40;;;10.40;;
8048;SDS011;20935;42.660;23.342;2022-10-16T07:45:58;18.00;;;11.03;;
8048;SDS011;20935;42.660;23.342;2022-10-16T07:48:25;13.77;;;10.87;;
8048;SDS011;20935;42.660;23.342;2022-10-16T07:50:51;14.07;;;11.00;;
8048;SDS011;20935;42.660;23.342;2022-10-16T07:53:16;11.07;;;9.70;;
8048;SDS011;20935;42.660;23.342;2022-10-16T07:55:42;12.83;;;10.93;;
8048;SDS011;20935;42.660;23.342;2022-10-16T07:58:07;11.77;;;9.90;;
8048;SDS011;20935;42.660;23.342;2022-10-16T08:00:32;11.87;;;9.93;;
8048;SDS011;20935;42.660;23.342;2022-10-16T08:02:58;11.03;;;9.90;;
8048;SDS011;20935;42.660;23.342;2022-10-16T08:05:26;11.47;;;9.57;;
8048;SDS011;20935;42.660;23.342;2022-10-16T08:07:52;11.37;;;9.43;;
8048;SDS011;20935;42.660;23.342;2022-10-16T08:10:18;12.00;;;9.67;;
8048;SDS011;20935;42.660;23.342;2022-10-16T08:12:44;11.67;;;9.60;;
8048;SDS011;20935;42.660;23.342;2022-10-16T08:15:09;12.30;;;9.37;;
8048;SDS011;20935;42.660;23.342;2022-10-16T08:17:34;9.90;;;8.90;;
8048;SDS011;20935;42.660;23.342;2022-10-16T08:20:00;12.07;;;9.37;;
8048;SDS011;20935;42.660;23.342;2022-10-16T08:22:25;12.67;;;8.93;;
8048;SDS011;20935;42.660;23.342;2022-10-16T08:24:50;10.33;;;8.80;;
8048;SDS011;20935;42.660;23.342;2022-10-16T08:27:16;10.20;;;9.20;;
8048;SDS011;20935;42.660;23.342;2022-10-16T08:29:41;9.63;;;8.63;;
8048;SDS011;20935;42.660;23.342;2022-10-16T08:32:06;9.70;;;8.33;;
8048;SDS011;20935;42.660;23.342;2022-10-16T08:34:31;13.00;;;7.93;;
8048;SDS011;20935;42.660;23.342;2022-10-16T08:36:57;9.17;;;8.27;;
8048;SDS011;20935;42.660;23.342;2022-10-16T08:39:22;10.30;;;7.70;;
8048;SDS011;20935;42.660;23.342;2022-10-16T08:44:35;10.40;;;7.03;;
8048;SDS011;20935;42.660;23.342;2022-10-16T08:47:17;8.83;;;7.40;;
8048;SDS011;20935;42.660;23.342;2022-10-16T08:49:46;11.10;;;7.27;;
8048;SDS011;20935;42.660;23.342;2022-10-16T08:52:18;7.10;;;6.43;;
8048;SDS011;20935;42.660;23.342;2022-10-16T08:54:46;7.93;;;6.67;;
8048;SDS011;20935;42.660;23.342;2022-10-16T08:57:17;7.57;;;6.13;;
8048;SDS011;20935;42.660;23.342;2022-10-16T08:59:43;7.50;;;5.60;;
8048;SDS011;20935;42.660;23.342;2022-10-16T09:09:49;7.73;;;5.10;;
8048;SDS011;20935;42.660;23.342;2022-10-16T09:12:28;6.10;;;5.50;;
8048;SDS011;20935;42.660;23.342;2022-10-16T09:15:02;6.93;;;5.50;;
8048;SDS011;20935;42.660;23.342;2022-10-16T09:25:29;5.17;;;4.67;;
8048;SDS011;20935;42.660;23.342;2022-10-16T09:27:54;6.23;;;5.13;;
8048;SDS011;20935;42.660;23.342;2022-10-16T09:30:20;5.63;;;4.73;;
8048;SDS011;20935;42.660;23.342;2022-10-16T09:32:47;5.70;;;4.80;;
8048;SDS011;20935;42.660;23.342;2022-10-16T09:35:14;5.37;;;4.63;;
8048;SDS011;20935;42.660;23.342;2022-10-16T09:37:40;5.47;;;4.63;;
8048;SDS011;20935;42.660;23.342;2022-10-16T09:40:11;5.77;;;4.80;;
8048;SDS011;20935;42.660;23.342;2022-10-16T09:42:37;5.50;;;5.00;;
8048;SDS011;20935;42.660;23.342;2022-10-16T09:45:02;5.07;;;4.17;;
8048;SDS011;20935;42.660;23.342;2022-10-16T09:47:29;4.23;;;3.83;;
8048;SDS011;20935;42.660;23.342;2022-10-16T09:49:56;6.43;;;4.17;;
8048;SDS011;20935;42.660;23.342;2022-10-16T09:52:23;5.10;;;4.60;;
8048;SDS011;20935;42.660;23.342;2022-10-16T09:54:52;6.50;;;4.70;;
8048;SDS011;20935;42.660;23.342;2022-10-16T09:57:18;5.40;;;4.77;;
8048;SDS011;20935;42.660;23.342;2022-10-16T09:59:47;5.73;;;4.30;;
8048;SDS011;20935;42.660;23.342;2022-10-16T10:02:13;5.17;;;4.63;;
8048;SDS011;20935;42.660;23.342;2022-10-16T10:04:45;6.13;;;4.10;;
8048;SDS011;20935;42.660;23.342;2022-10-16T10:07:19;8.17;;;4.10;;
8048;SDS011;20935;42.660;23.342;2022-10-16T10:09:46;5.97;;;4.37;;
8048;SDS011;20935;42.660;23.342;2022-10-16T10:12:30;8.23;;;4.43;;
8048;SDS011;20935;42.660;23.342;2022-10-16T10:15:07;4.97;;;4.47;;
8048;SDS011;20935;42.660;23.342;2022-10-16T10:17:32;4.57;;;4.13;;
8048;SDS011;20935;42.660;23.342;2022-10-16T10:19:58;6.30;;;3.80;;
8048;SDS011;20935;42.660;23.342;2022-10-16T10:30:05;6.40;;;5.00;;
8048;SDS011;20935;42.660;23.342;2022-10-16T10:37:50;6.30;;;4.03;;
8048;SDS011;20935;42.660;23.342;2022-10-16T10:43:04;4.57;;;4.10;;
8048;SDS011;20935;42.660;23.342;2022-10-16T10:45:41;5.13;;;4.17;;
8048;SDS011;20935;42.660;23.342;2022-10-16T10:50:41;5.13;;;3.90;;
8048;SDS011;20935;42.660;23.342;2022-10-16T10:55:59;4.03;;;3.50;;
8048;SDS011;20935;42.660;23.342;2022-10-16T11:06:08;3.37;;;3.07;;
8048;SDS011;20935;42.660;23.342;2022-10-16T11:08:36;5.03;;;3.63;;
8048;SDS011;20935;42.660;23.342;2022-10-16T11:11:06;4.40;;;3.60;;
8048;SDS011;20935;42.660;23.342;2022-10-16T11:13:35;4.10;;;3.40;;
8048;SDS011;20935;42.660;23.342;2022-10-16T11:16:05;3.60;;;3.30;;
8048;SDS011;20935;42.660;23.342;2022-10-16T11:18:46;4.47;;;3.17;;
8048;SDS011;20935;42.660;23.342;2022-10-16T11:21:14;3.13;;;2.83;;
8048;SDS011;20935;42.660;23.342;2022-10-16T11:26:09;4.87;;;3.27;;
8048;SDS011;20935;42.660;23.342;2022-10-16T11:28:42;3.80;;;3.40;;
8048;SDS011;20935;42.660;23.342;2022-10-16T11:31:08;3.13;;;2.87;;
8048;SDS011;20935;42.660;23.342;2022-10-16T11:33:40;4.43;;;2.97;;
8048;SDS011;20935;42.660;23.342;2022-10-16T11:36:19;4.90;;;3.40;;
8048;SDS011;20935;42.660;23.342;2022-10-16T11:46:30;3.83;;;2.57;;
8048;SDS011;20935;42.660;23.342;2022-10-16T11:49:15;3.67;;;3.07;;
8048;SDS011;20935;42.660;23.342;2022-10-16T11:52:05;4.13;;;2.97;;
8048;SDS011;20935;42.660;23.342;2022-10-16T11:57:13;3.73;;;2.90;;
8048;SDS011;20935;42.660;23.342;2022-10-16T11:59:46;4.07;;;3.03;;
8048;SDS011;20935;42.660;23.342;2022-10-16T12:07:53;5.60;;;3.30;;
8048;SDS011;20935;42.660;23.342;2022-10-16T12:10:21;5.27;;;3.40;;
8048;SDS011;20935;42.660;23.342;2022-10-16T12:12:46;3.83;;;3.20;;
8048;SDS011;20935;42.660;23.342;2022-10-16T12:17:40;3.77;;;3.10;;
8048;SDS011;20935;42.660;23.342;2022-10-16T12:22:40;4.37;;;3.70;;
8048;SDS011;20935;42.660;23.342;2022-10-16T12:25:18;4.47;;;3.60;;
8048;SDS011;20935;42.660;23.342;2022-10-16T12:27:44;3.83;;;3.53;;
8048;SDS011;20935;42.660;23.342;2022-10-16T12:30:14;5.77;;;4.00;;
8048;SDS011;20935;42.660;23.342;2022-10-16T12:32:45;3.47;;;3.17;;
8048;SDS011;20935;42.660;23.342;2022-10-16T12:35:19;4.30;;;3.50;;
8048;SDS011;20935;42.660;23.342;2022-10-16T12:37:45;4.70;;;3.40;;
8048;SDS011;20935;42.660;23.342;2022-10-16T12:40:11;3.90;;;3.20;;
8048;SDS011;20935;42.660;23.342;2022-10-16T12:42:37;3.60;;;3.30;;
8048;SDS011;20935;42.660;23.342;2022-10-16T12:45:13;3.57;;;3.27;;
8048;SDS011;20935;42.660;23.342;2022-10-16T12:47:48;3.43;;;3.10;;
8048;SDS011;20935;42.660;23.342;2022-10-16T12:50:25;3.60;;;3.30;;
8048;SDS011;20935;42.660;23.342;2022-10-16T12:52:51;3.47;;;3.17;;
8048;SDS011;20935;42.660;23.342;2022-10-16T12:55:17;3.03;;;2.83;;
8048;SDS011;20935;42.660;23.342;2022-10-16T13:00:21;3.67;;;3.13;;
8048;SDS011;20935;42.660;23.342;2022-10-16T13:10:39;4.73;;;3.10;;
8048;SDS011;20935;42.660;23.342;2022-10-16T13:28:34;4.63;;;3.20;;
8048;SDS011;20935;42.660;23.342;2022-10-16T13:31:00;2.90;;;2.70;;
8048;SDS011;20935;42.660;23.342;2022-10-16T13:35:52;3.47;;;3.00;;
8048;SDS011;20935;42.660;23.342;2022-10-16T13:38:19;5.47;;;3.30;;
8048;SDS011;20935;42.660;23.342;2022-10-16T13:40:55;3.73;;;3.43;;
8048;SDS011;20935;42.660;23.342;2022-10-16T13:43:24;3.10;;;2.80;;
8048;SDS011;20935;42.660;23.342;2022-10-16T13:45:54;4.00;;;3.17;;
8048;SDS011;20935;42.660;23.342;2022-10-16T13:48:20;4.47;;;2.93;;
8048;SDS011;20935;42.660;23.342;2022-10-16T13:50:45;3.67;;;3.07;;
8048;SDS011;20935;42.660;23.342;2022-10-16T13:53:14;3.97;;;3.47;;
8048;SDS011;20935;42.660;23.342;2022-10-16T13:55:39;3.63;;;3.20;;
8048;SDS011;20935;42.660;23.342;2022-10-16T13:58:08;4.73;;;3.80;;
8048;SDS011;20935;42.660;23.342;2022-10-16T14:00:34;4.43;;;3.97;;
8048;SDS011;20935;42.660;23.342;2022-10-16T14:03:04;4.33;;;3.43;;
8048;SDS011;20935;42.660;23.342;2022-10-16T14:05:29;5.87;;;4.00;;
8048;SDS011;20935;42.660;23.342;2022-10-16T14:10:30;6.07;;;3.97;;
8048;SDS011;20935;42.660;23.342;2022-10-16T14:13:05;5.13;;;3.90;;
8048;SDS011;20935;42.660;23.342;2022-10-16T14:15:32;4.27;;;3.87;;
8048;SDS011;20935;42.660;23.342;2022-10-16T14:17:58;4.33;;;3.93;;
8048;SDS011;20935;42.660;23.342;2022-10-16T14:20:28;6.50;;;3.77;;
8048;SDS011;20935;42.660;23.342;2022-10-16T14:23:00;7.53;;;4.67;;
8048;SDS011;20935;42.660;23.342;2022-10-16T14:25:27;4.90;;;3.40;;
8048;SDS011;20935;42.660;23.342;2022-10-16T14:30:25;5.83;;;3.17;;
8048;SDS011;20935;42.660;23.342;2022-10-16T14:35:23;3.90;;;3.00;;
8048;SDS011;20935;42.660;23.342;2022-10-16T14:37:53;9.67;;;3.70;;
8048;SDS011;20935;42.660;23.342;2022-10-16T14:40:19;7.40;;;3.63;;
8048;SDS011;20935;42.660;23.342;2022-10-16T14:42:45;3.50;;;3.07;;
8048;SDS011;20935;42.660;23.342;2022-10-16T14:45:11;7.03;;;3.00;;
8048;SDS011;20935;42.660;23.342;2022-10-16T14:47:37;6.27;;;3.70;;
8048;SDS011;20935;42.660;23.342;2022-10-16T14:50:11;7.93;;;4.37;;
8048;SDS011;20935;42.660;23.342;2022-10-16T14:52:36;4.20;;;3.80;;
8048;SDS011;20935;42.660;23.342;2022-10-16T14:55:01;3.70;;;3.40;;
8048;SDS011;20935;42.660;23.342;2022-10-16T14:57:27;4.50;;;3.50;;
8048;SDS011;20935;42.660;23.342;2022-10-16T14:59:52;3.97;;;3.43;;
8048;SDS011;20935;42.660;23.342;2022-10-16T15:02:34;5.43;;;3.83;;
8048;SDS011;20935;42.660;23.342;2022-10-16T15:07:47;6.10;;;3.70;;
8048;SDS011;20935;42.660;23.342;2022-10-16T15:10:13;4.37;;;3.97;;
8048;SDS011;20935;42.660;23.342;2022-10-16T15:12:38;5.17;;;3.60;;
8048;SDS011;20935;42.660;23.342;2022-10-16T15:17:51;5.83;;;3.80;;
8048;SDS011;20935;42.660;23.342;2022-10-16T15:20:18;6.77;;;3.87;;
8048;SDS011;20935;42.660;23.342;2022-10-16T15:22:44;6.30;;;3.97;;
8048;SDS011;20935;42.660;23.342;2022-10-16T15:27:53;4.83;;;3.67;;
8048;SDS011;20935;42.660;23.342;2022-10-16T15:30:19;8.50;;;4.93;;
8048;SDS011;20935;42.660;23.342;2022-10-16T15:32:44;8.83;;;4.43;;
8048;SDS011;20935;42.660;23.342;2022-10-16T15:35:09;4.70;;;3.60;;
8048;SDS011;20935;42.660;23.342;2022-10-16T15:37:34;5.13;;;4.20;;
8048;SDS011;20935;42.660;23.342;2022-10-16T15:40:00;6.73;;;4.30;;
8048;SDS011;20935;42.660;23.342;2022-10-16T15:42:25;4.53;;;3.97;;
8048;SDS011;20935;42.660;23.342;2022-10-16T15:44:50;5.07;;;4.27;;
8048;SDS011;20935;42.660;23.342;2022-10-16T15:47:16;6.87;;;4.40;;
8048;SDS011;20935;42.660;23.342;2022-10-16T15:49:41;10.47;;;6.13;;
8048;SDS011;20935;42.660;23.342;2022-10-16T15:52:06;7.60;;;5.00;;
8048;SDS011;20935;42.660;23.342;2022-10-16T15:54:32;7.30;;;4.97;;
8048;SDS011;20935;42.660;23.342;2022-10-16T15:56:57;8.43;;;4.57;;
8048;SDS011;20935;42.660;23.342;2022-10-16T15:59:22;7.27;;;5.03;;
8048;SDS011;20935;42.660;23.342;2022-10-16T16:01:48;8.10;;;4.67;;
8048;SDS011;20935;42.660;23.342;2022-10-16T16:04:13;6.63;;;4.83;;
8048;SDS011;20935;42.660;23.342;2022-10-16T16:06:38;7.07;;;6.03;;
8048;SDS011;20935;42.660;23.342;2022-10-16T16:09:09;8.03;;;5.00;;
8048;SDS011;20935;42.660;23.342;2022-10-16T16:11:34;6.33;;;5.00;;
8048;SDS011;20935;42.660;23.342;2022-10-16T16:14:03;8.13;;;5.60;;
8048;SDS011;20935;42.660;23.342;2022-10-16T16:16:29;5.77;;;4.70;;
8048;SDS011;20935;42.660;23.342;2022-10-16T16:18:54;4.90;;;4.50;;
8048;SDS011;20935;42.660;23.342;2022-10-16T16:21:20;8.43;;;5.43;;
8048;SDS011;20935;42.660;23.342;2022-10-16T16:23:45;8.03;;;5.20;;
8048;SDS011;20935;42.660;23.342;2022-10-16T16:28:36;10.30;;;5.00;;
8048;SDS011;20935;42.660;23.342;2022-10-16T16:31:02;6.03;;;4.80;;
8048;SDS011;20935;42.660;23.342;2022-10-16T16:33:27;7.17;;;4.50;;
8048;SDS011;20935;42.660;23.342;2022-10-16T16:35:56;8.43;;;4.90;;
8048;SDS011;20935;42.660;23.342;2022-10-16T16:38:21;7.20;;;5.37;;
8048;SDS011;20935;42.660;23.342;2022-10-16T16:40:47;6.97;;;5.00;;
8048;SDS011;20935;42.660;23.342;2022-10-16T16:43:13;8.33;;;5.40;;
8048;SDS011;20935;42.660;23.342;2022-10-16T16:45:38;11.30;;;5.60;;